| time (UTC) | temp F | wind direction | speed knots | gust knots | rain 1hr in | rain 24hr in | rain mn in | humidity % | barometer mb |
| 20260509023041 | 53 | 360 | 0.9 | 2.6 | 0.00 | 0.12 | 0.07 | 91 | 979.2 |
| 20260509021541 | 54 | 360 | 1.7 | 2.6 | 0.00 | 0.12 | 0.07 | 91 | 979.3 |
| 20260509020041 | 54 | 360 | 0.9 | 2.6 | 0.00 | 0.12 | 0.07 | 91 | 979.3 |
| 20260509014541 | 54 | 360 | 1.7 | 3.5 | 0.00 | 0.14 | 0.07 | 90 | 979.2 |
| 20260509013051 | 55 | 360 | 0.9 | 2.6 | 0.00 | 0.14 | 0.07 | 90 | 979.1 |
| 20260509011540 | 55 | 360 | 2.6 | 5.2 | 0.00 | 0.14 | 0.07 | 89 | 979.1 |
| 20260509010039 | 55 | 360 | 1.7 | 4.3 | 0.00 | 0.14 | 0.07 | 89 | 978.9 |
| 20260509004541 | 56 | 360 | 3.5 | 8.7 | 0.00 | 0.14 | 0.07 | 88 | 978.8 |
| 20260509003039 | 56 | 360 | 5.2 | 9.6 | 0.00 | 0.14 | 0.07 | 87 | 978.8 |
| 20260509001548 | 57 | 360 | 5.2 | 8.7 | 0.00 | 0.14 | 0.07 | 85 | 978.8 |
| 20260509000036 | 57 | 360 | 7.8 | 11.3 | 0.00 | 0.14 | 0.07 | 84 | 978.8 |
| 20260508234535 | 58 | 360 | 3.5 | 9.6 | 0.00 | 0.14 | 0.07 | 85 | 978.8 |
| 20260508233035 | 57 | 360 | 4.3 | 10.4 | 0.00 | 0.14 | 0.07 | 86 | 978.9 |
| 20260508231535 | 58 | 360 | 6.1 | 10.4 | 0.00 | 0.14 | 0.07 | 85 | 979.0 |
| 20260508230035 | 58 | 360 | 5.2 | 12.2 | 0.00 | 0.14 | 0.07 | 85 | 979.2 |
| 20260508224541 | 58 | 360 | 7.0 | 10.4 | 0.00 | 0.14 | 0.07 | 86 | 979.1 |
| 20260508223044 | 58 | 360 | 6.1 | 13.0 | 0.00 | 0.14 | 0.07 | 86 | 979.1 |
| 20260508221531 | 57 | 360 | 7.0 | 11.3 | 0.00 | 0.14 | 0.07 | 84 | 979.2 |
| 20260508220031 | 58 | 360 | 6.1 | 11.3 | 0.00 | 0.14 | 0.07 | 82 | 979.3 |
| 20260508214549 | 58 | 360 | 7.8 | 13.0 | 0.00 | 0.14 | 0.07 | 84 | 979.3 |
| 20260508213028 | 58 | 360 | 7.8 | 14.8 | 0.00 | 0.14 | 0.07 | 84 | 979.2 |
| 20260508211528 | 57 | 360 | 10.4 | 13.0 | 0.03 | 0.14 | 0.07 | 84 | 979.2 |
| 20260508210026 | 57 | 360 | 7.0 | 11.3 | 0.04 | 0.14 | 0.07 | 83 | 979.4 |
| 20260508204525 | 57 | 360 | 6.1 | 9.6 | 0.04 | 0.14 | 0.07 | 84 | 979.5 |
| 20260508203023 | 56 | 360 | 7.0 | 12.2 | 0.04 | 0.14 | 0.07 | 82 | 979.8 |
| 20260508201522 | 58 | 360 | 2.6 | 5.2 | 0.01 | 0.11 | 0.04 | 78 | 980.0 |
| 20260508200023 | 59 | 360 | 0.9 | 2.6 | 0.00 | 0.10 | 0.03 | 73 | 980.0 |
| 20260508194518 | 59 | 360 | 0.0 | 1.7 | 0.00 | 0.10 | 0.03 | 73 | 980.2 |
| 20260508193017 | 59 | 360 | 0.9 | 4.3 | 0.00 | 0.10 | 0.03 | 73 | 980.3 |
| 20260508191517 | 59 | 360 | 0.0 | 3.5 | 0.00 | 0.10 | 0.03 | 74 | 980.5 |
| 20260508190024 | 58 | 360 | 0.0 | 4.3 | 0.00 | 0.10 | 0.03 | 75 | 980.5 |
| 20260508184522 | 58 | 360 | 3.5 | 7.0 | 0.00 | 0.10 | 0.03 | 75 | 980.9 |
| 20260508183021 | 58 | 360 | 1.7 | 4.3 | 0.00 | 0.10 | 0.03 | 76 | 980.9 |
| 20260508181508 | 58 | 360 | 1.7 | 5.2 | 0.00 | 0.10 | 0.03 | 77 | 981.1 |
| 20260508180005 | 57 | 360 | 0.9 | 4.3 | 0.00 | 0.10 | 0.03 | 79 | 981.3 |
| 20260508174503 | 56 | 360 | 3.5 | 7.0 | 0.00 | 0.10 | 0.03 | 81 | 981.5 |
| 20260508173059 | 56 | 360 | 3.5 | 7.8 | 0.00 | 0.10 | 0.03 | 83 | 981.7 |
| 20260508171603 | 55 | 360 | 2.6 | 7.0 | 0.00 | 0.10 | 0.03 | 82 | 982.0 |
| 20260508170106 | 55 | 360 | 3.5 | 7.0 | 0.00 | 0.10 | 0.03 | 82 | 982.3 |
| 20260508164559 | 54 | 360 | 3.5 | 7.8 | 0.00 | 0.10 | 0.03 | 83 | 982.5 |
| 20260508163054 | 53 | 360 | 3.5 | 8.7 | 0.00 | 0.10 | 0.03 | 84 | 982.7 |
| 20260508161602 | 54 | 360 | 7.8 | 10.4 | 0.00 | 0.10 | 0.03 | 83 | 982.9 |
| 20260508160054 | 54 | 360 | 6.1 | 11.3 | 0.00 | 0.10 | 0.03 | 83 | 982.7 |
| 20260508154552 | 54 | 360 | 4.3 | 9.6 | 0.00 | 0.10 | 0.03 | 85 | 982.5 |
| 20260508153055 | 52 | 360 | 4.3 | 9.6 | 0.00 | 0.10 | 0.03 | 86 | 982.7 |
| 20260508151549 | 52 | 360 | 6.1 | 9.6 | 0.01 | 0.10 | 0.03 | 87 | 982.7 |
| 20260508150045 | 51 | 360 | 6.1 | 9.6 | 0.01 | 0.10 | 0.03 | 89 | 982.8 |
| 20260508144550 | 51 | 360 | 5.2 | 7.8 | 0.02 | 0.10 | 0.03 | 89 | 982.9 |
| 20260508143047 | 51 | 360 | 4.3 | 8.7 | 0.02 | 0.10 | 0.03 | 89 | 983.2 |
| 20260508141553 | 51 | 360 | 7.8 | 13.0 | 0.01 | 0.09 | 0.02 | 88 | 983.2 |
| 20260508140043 | 51 | 360 | 8.7 | 13.9 | 0.01 | 0.09 | 0.02 | 87 | 983.6 |
| 20260508134542 | 52 | 360 | 5.2 | 9.6 | 0.00 | 0.08 | 0.01 | 86 | 983.1 |
| 20260508133038 | 51 | 360 | 4.3 | 8.7 | 0.00 | 0.08 | 0.01 | 86 | 983.0 |
| 20260508131539 | 51 | 360 | 3.5 | 7.8 | 0.00 | 0.08 | 0.01 | 86 | 983.1 |
| 20260508130039 | 51 | 360 | 1.7 | 5.2 | 0.00 | 0.08 | 0.01 | 86 | 982.7 |
| 20260508124536 | 50 | 360 | 2.6 | 4.3 | 0.00 | 0.08 | 0.01 | 87 | 983.2 |
| 20260508123028 | 50 | 360 | 1.7 | 4.3 | 0.00 | 0.08 | 0.01 | 86 | 983.1 |
| 20260508121525 | 50 | 360 | 0.9 | 2.6 | 0.00 | 0.08 | 0.01 | 86 | 982.9 |
| 20260508120022 | 49 | 360 | 0.9 | 2.6 | 0.00 | 0.08 | 0.01 | 86 | 982.9 |
| 20260508114519 | 49 | 360 | 0.9 | 3.5 | 0.00 | 0.08 | 0.01 | 86 | 982.8 |
| 20260508113021 | 48 | 360 | 1.7 | 3.5 | 0.00 | 0.08 | 0.01 | 87 | 982.5 |
| 20260508111513 | 47 | 360 | 1.7 | 4.3 | 0.00 | 0.08 | 0.01 | 88 | 982.6 |
| 20260508110009 | 46 | 360 | 1.7 | 4.3 | 0.00 | 0.08 | 0.01 | 88 | 982.5 |
| 20260508104507 | 46 | 235 | 1.7 | 4.3 | 0.00 | 0.08 | 0.01 | 89 | 982.4 |
| 20260508103010 | 45 | 236 | 0.0 | 1.7 | 0.00 | 0.08 | 0.01 | 88 | 982.4 |
| 20260508101505 | 45 | 236 | 0.0 | 2.6 | 0.00 | 0.08 | 0.01 | 87 | 982.2 |
| 20260508100005 | 46 | 236 | 1.7 | 4.3 | 0.00 | 0.08 | 0.01 | 87 | 982.3 |
| 20260508094503 | 46 | 232 | 2.6 | 4.3 | 0.00 | 0.08 | 0.01 | 87 | 982.4 |
| 20260508093005 | 46 | 234 | 2.6 | 4.3 | 0.00 | 0.08 | 0.01 | 87 | 982.5 |
| 20260508091505 | 46 | 234 | 0.9 | 2.6 | 0.00 | 0.08 | 0.01 | 87 | 982.5 |
| 20260508090116 | 46 | 234 | 0.9 | 3.5 | 0.00 | 0.08 | 0.01 | 87 | 982.5 |
| 20260508084601 | 45 | 235 | 1.7 | 4.3 | 0.00 | 0.08 | 0.01 | 87 | 982.5 |
| 20260508083104 | 45 | 234 | 2.6 | 5.2 | 0.00 | 0.08 | 0.01 | 88 | 982.5 |
| 20260508081610 | 44 | 209 | 2.6 | 4.3 | 0.00 | 0.08 | 0.01 | 89 | 982.5 |
| 20260508080057 | 44 | 360 | 1.7 | 4.3 | 0.00 | 0.08 | 0.01 | 89 | 982.5 |
| 20260508074556 | 44 | 205 | 1.7 | 4.3 | 0.00 | 0.08 | 0.01 | 89 | 982.5 |
| 20260508073055 | 45 | 201 | 1.7 | 2.6 | 0.00 | 0.08 | 0.01 | 88 | 982.5 |
| 20260508071552 | 45 | 201 | 0.9 | 4.3 | 0.00 | 0.08 | 0.01 | 88 | 982.5 |
| 20260508070053 | 45 | 202 | 1.7 | 4.3 | 0.00 | 0.08 | 0.01 | 88 | 982.5 |
| 20260508064548 | 45 | 203 | 1.7 | 3.5 | 0.00 | 0.08 | 0.01 | 88 | 982.6 |
| 20260508063059 | 46 | 198 | 2.6 | 4.3 | 0.00 | 0.08 | 0.01 | 89 | 982.7 |
| 20260508061547 | 46 | 199 | 2.6 | 3.5 | 0.00 | 0.08 | 0.01 | 89 | 982.9 |
| 20260508060043 | 46 | 200 | 0.9 | 4.3 | 0.00 | 0.08 | 0.01 | 90 | 982.9 |
| 20260508054541 | 46 | 203 | 2.6 | 4.3 | 0.00 | 0.08 | 0.01 | 91 | 983.1 |
| 20260508053041 | 46 | 181 | 1.7 | 4.3 | 0.00 | 0.08 | 0.01 | 91 | 983.1 |
| 20260508051541 | 45 | 180 | 2.6 | 4.3 | 0.00 | 0.08 | 0.01 | 92 | 983.1 |
| 20260508050039 | 45 | 180 | 0.0 | 2.6 | 0.01 | 0.08 | 0.01 | 92 | 983.2 |
| 20260508044534 | 45 | 180 | 0.0 | 1.7 | 0.01 | 0.08 | 0.01 | 91 | 983.3 |
| 20260508043051 | 45 | 180 | 0.0 | 2.6 | 0.01 | 0.08 | 0.01 | 91 | 983.2 |
| 20260508041536 | 45 | 180 | 0.0 | 1.7 | 0.01 | 0.08 | 0.01 | 91 | 983.3 |
| 20260508040036 | 46 | 180 | 0.9 | 3.5 | 0.00 | 0.07 | 0.00 | 90 | 983.2 |
| 20260508034530 | 46 | 194 | 1.7 | 3.5 | 0.00 | 0.07 | 0.07 | 90 | 983.3 |
| 20260508033028 | 47 | 215 | 0.0 | 3.5 | 0.00 | 0.07 | 0.07 | 90 | 983.4 |
| 20260508031527 | 47 | 240 | 0.9 | 2.6 | 0.02 | 0.07 | 0.07 | 89 | 983.5 |
| 20260508030030 | 47 | 242 | 0.9 | 3.5 | 0.05 | 0.07 | 0.07 | 89 | 983.6 |
| 20260508024526 | 47 | 266 | 0.0 | 3.5 | 0.07 | 0.07 | 0.07 | 87 | 983.8 |